Saint Cloud, MN (56393)

6:38 PM CDT on July 05, 2015 (GMT -0500)
Quail Meadows | | Change Station
CLOSE
Current Station
Personal Weather Station
Location: St Cloud, MN
Elevation: 1039 ft
Nearby Weather Stations

Elev 1039 ft 45.58 °N, 94.22 °W | Updated 9 minutes ago

Overcast
Overcast
85.5 °F
Feels Like 93 °F
N
10.9
Wind Variable Wind from SSE

Today
High -- | Low -- °F
--% Chance of Precip.
Yesterday
High -- | Low -- °F
Precip. -- in
5:34 AM 9:08 PM
Waning Gibbous, 81% visible
Pressure 29.81 in
Visibility 10.0 miles
Clouds Few 4200 ft
Mostly Cloudy 5000 ft
Overcast 6000 ft
Heat Index 93 °F
Dew Point 74 °F
Humidity 69%
Rainfall 0.00 in
Snow Depth Not available.
UV 1 out of 12
Pollen 4.90 out of 12
Air Quality Not available.
Flu Activity Not available.
METAR KSTC 052253Z 17012KT 10SM FEW042 BKN050 OVC060 28/21 A2980 RMK AO2 SLP094 T02830211 $

More Conditions Fewer Conditions

Pressure 29.81 in
Visibility 10.0 miles
Clouds Few 4200 ft
Mostly Cloudy 5000 ft
Overcast 6000 ft
Heat Index 93 °F
Dew Point 74 °F
Humidity 69%
Rainfall 0.00 in
Snow Depth Not available.
UV 1 out of 12
Pollen 4.90 out of 12
Air Quality Not available.
Flu Activity Not available.
METAR KSTC 052253Z 17012KT 10SM FEW042 BKN050 OVC060 28/21 A2980 RMK AO2 SLP094 T02830211 $

More Conditions Fewer Conditions

10-Day Weather Forecast

×

Almanac

Astronomy

Jul. 05, 2015 Rise Set
Actual Time
Civil Twilight
Nautical Twilight
Astronomical Twilight
Moon
Length of Visible Light
Length of Day
Tomorrow will be .
, % of the Moon is Illuminated

Today's Extremes

State Highs State Lows

Community

WunderPhotos

Upload Photos

1,835,421 photos uploaded!

WunderBlogs® & News

Nearby

Air Quality

  Air Quality AQ Index Pollutant
Not available.

Snow Depth

Station Depth Elevation

Earthquake Activity

City Distance Mag. Time & Date
Minimum magnitude displayed is 2.5.

Coastal Water Temperatures

Place Temperature

Stations

Nearby Weather Stations

Station Location Temp. Windchill Dew Point Humidity Wind Precip. Elev Updated Type